Time;durP1;ratioP1;P1;durP2;ratioP2;P2;SDS_P1;SDS_P2;PMS_P1;PMS_P2;Temp;Humidity;BMP_temperature;BMP_pressure;BME280_temperature;BME280_humidity;BME280_pressure;Samples;Min_cycle;Max_cycle;Signal;HPM_P1;HPM_P2
2024/04/16 00:00:38;;;;;;;4.73;2.80;;;9.60;99.90;;;;;;5416018;26;20430;-62
2024/04/16 00:03:05;;;;;;;4.23;2.50;;;9.70;99.90;;;;;;5416792;26;20822;-62
2024/04/16 00:05:31;;;;;;;3.10;2.90;;;9.70;99.90;;;;;;5416007;26;20496;-62
2024/04/16 00:07:57;;;;;;;4.77;3.33;;;9.80;99.90;;;;;;5437655;26;20440;-62
2024/04/16 00:10:23;;;;;;;3.83;3.53;;;9.70;99.90;;;;;;5452604;26;20427;-62
2024/04/16 00:12:49;;;;;;;6.00;5.63;;;9.70;99.90;;;;;;5451842;26;20427;-62
2024/04/16 00:15:16;;;;;;;6.00;3.93;;;9.80;99.90;;;;;;5452479;26;20523;-62
2024/04/16 00:17:42;;;;;;;3.93;3.17;;;9.70;99.90;;;;;;5420184;26;20673;-62
2024/04/16 00:20:08;;;;;;;4.57;2.90;;;9.80;99.90;;;;;;5416272;26;20452;-62
2024/04/16 00:22:34;;;;;;;4.10;3.80;;;9.70;99.90;;;;;;5415617;26;20832;-61
2024/04/16 00:25:00;;;;;;;3.37;3.03;;;9.70;99.90;;;;;;5415629;26;20503;-62
2024/04/16 00:27:26;;;;;;;4.53;2.80;;;9.70;99.90;;;;;;5416103;26;20453;-62
2024/04/16 00:29:52;;;;;;;5.93;4.73;;;9.70;99.90;;;;;;5416152;26;20537;-63
2024/04/16 00:32:18;;;;;;;3.50;3.20;;;9.60;99.90;;;;;;5416590;26;20549;-64
2024/04/16 00:34:43;;;;;;;2.20;2.10;;;9.60;99.90;;;;;;5415867;26;20222;-63
2024/04/16 00:37:09;;;;;;;6.87;4.40;;;9.70;99.90;;;;;;5416667;26;20264;-63
2024/04/16 00:39:35;;;;;;;2.37;2.27;;;9.70;99.90;;;;;;5415606;26;20280;-63
2024/04/16 00:42:02;;;;;;;3.03;2.63;;;9.70;99.90;;;;;;5416299;26;20220;-63
2024/04/16 00:44:28;;;;;;;3.87;2.50;;;9.70;99.90;;;;;;5416503;26;20275;-63
2024/04/16 00:46:54;;;;;;;7.13;2.40;;;9.70;99.90;;;;;;5415517;26;20493;-63
2024/04/16 00:49:21;;;;;;;2.63;2.43;;;9.60;99.90;;;;;;5384308;26;20948;-62
2024/04/16 00:51:47;;;;;;;2.60;2.40;;;9.60;99.90;;;;;;5417548;26;20478;-63
2024/04/16 00:54:14;;;;;;;2.73;2.40;;;9.70;99.90;;;;;;5419434;26;20480;-63
2024/04/16 00:56:40;;;;;;;2.87;2.10;;;9.50;99.90;;;;;;5418423;26;21082;-62
2024/04/16 00:59:06;;;;;;;3.00;2.80;;;9.60;99.90;;;;;;5419194;26;20445;-63
2024/04/16 01:01:32;;;;;;;3.13;2.87;;;9.50;99.90;;;;;;5418821;26;20823;-61
2024/04/16 01:03:59;;;;;;;3.83;3.10;;;9.50;99.90;;;;;;5419247;26;20432;-63
2024/04/16 01:06:25;;;;;;;3.40;3.13;;;9.40;99.90;;;;;;5419522;26;20438;-63
2024/04/16 01:08:51;;;;;;;5.53;3.30;;;9.40;99.90;;;;;;5418448;26;20428;-62
2024/04/16 01:11:27;;;;;;;3.60;2.90;;;9.50;99.90;;;;;;5419167;26;20495;-63
2024/04/16 01:13:54;;;;;;;3.67;2.40;;;9.50;99.90;;;;;;5418657;26;20552;-63
2024/04/16 01:16:21;;;;;;;3.10;2.90;;;9.50;99.90;;;;;;5419111;26;20487;-63
2024/04/16 01:18:47;;;;;;;4.30;2.83;;;9.50;99.90;;;;;;5434019;26;20538;-63
2024/04/16 01:21:13;;;;;;;2.50;2.40;;;9.30;99.90;;;;;;5455015;26;20430;-63
2024/04/16 01:23:39;;;;;;;6.00;5.60;;;9.30;99.90;;;;;;5454492;26;20430;-62
2024/04/16 01:26:05;;;;;;;2.97;2.60;;;9.40;99.90;;;;;;5454771;26;20236;-63
2024/04/16 01:28:30;;;;;;;3.03;2.93;;;9.40;99.90;;;;;;5454878;26;20450;-63
2024/04/16 01:30:56;;;;;;;3.80;3.00;;;9.30;99.90;;;;;;5454212;26;20678;-63
2024/04/16 01:33:22;;;;;;;2.40;1.90;;;9.40;99.90;;;;;;5454638;26;20604;-62
2024/04/16 01:35:48;;;;;;;2.40;2.17;;;9.30;99.90;;;;;;5453071;26;20233;-62
2024/04/16 01:38:13;;;;;;;3.90;3.80;;;9.40;99.90;;;;;;5454684;26;20263;-63
2024/04/16 01:40:39;;;;;;;2.83;2.63;;;9.30;99.90;;;;;;5422401;26;20226;-62
2024/04/16 01:43:05;;;;;;;6.20;5.90;;;9.30;99.90;;;;;;5423155;26;20250;-63
2024/04/16 01:45:31;;;;;;;2.10;1.90;;;9.30;99.90;;;;;;5455051;26;20267;-63
2024/04/16 01:47:57;;;;;;;2.40;2.30;;;9.30;99.90;;;;;;5453944;26;20260;-63
2024/04/16 01:50:22;;;;;;;6.47;4.30;;;9.40;99.90;;;;;;5454545;26;20440;-63
2024/04/16 01:52:48;;;;;;;3.70;3.50;;;9.40;99.90;;;;;;5453871;26;20302;-63
2024/04/16 01:55:14;;;;;;;3.60;2.60;;;9.30;99.90;;;;;;5454659;26;20222;-63
2024/04/16 01:57:40;;;;;;;2.70;2.03;;;9.20;99.90;;;;;;5453339;26;20267;-62
2024/04/16 02:00:06;;;;;;;1.90;1.80;;;9.20;99.90;;;;;;5454125;26;20228;-63
2024/04/16 02:02:35;;;;;;;3.60;3.40;;;9.30;99.90;;;;;;5453715;26;20709;-63
2024/04/16 02:05:02;;;;;;;5.47;2.80;;;9.40;99.90;;;;;;5453701;26;20452;-63
2024/04/16 02:07:28;;;;;;;3.30;3.00;;;9.30;99.90;;;;;;5454363;26;21087;-63
2024/04/16 02:09:53;;;;;;;2.57;2.37;;;9.40;99.90;;;;;;5453706;26;20432;-63
2024/04/16 02:12:19;;;;;;;4.23;4.00;;;9.40;99.90;;;;;;5454373;26;20224;-63
2024/04/16 02:14:45;;;;;;;4.03;2.70;;;9.30;99.90;;;;;;5453702;26;20441;-63
2024/04/16 02:17:10;;;;;;;3.83;3.53;;;9.30;99.90;;;;;;5454408;26;20283;-63
2024/04/16 02:19:37;;;;;;;3.73;3.27;;;9.20;99.90;;;;;;5453815;26;20337;-62
2024/04/16 02:22:02;;;;;;;3.43;3.20;;;9.30;99.90;;;;;;5422588;26;20269;-63
2024/04/16 02:24:29;;;;;;;3.40;3.20;;;9.20;99.90;;;;;;5453970;26;20442;-63
2024/04/16 02:26:54;;;;;;;5.37;3.00;;;9.30;99.90;;;;;;5453247;26;20234;-63
2024/04/16 02:29:20;;;;;;;2.37;2.27;;;9.30;99.90;;;;;;5454011;26;20961;-63
2024/04/16 02:31:46;;;;;;;4.00;2.30;;;9.30;99.90;;;;;;5453206;26;20291;-62
2024/04/16 02:34:12;;;;;;;3.30;3.00;;;9.30;99.90;;;;;;5454168;26;20210;-63
2024/04/16 02:36:38;;;;;;;4.90;4.50;;;9.20;99.90;;;;;;5453306;26;20222;-62
2024/04/16 02:39:04;;;;;;;3.50;3.30;;;9.20;99.90;;;;;;5453993;26;20481;-63
2024/04/16 02:41:30;;;;;;;6.00;2.80;;;9.10;99.90;;;;;;5453993;26;20492;-63
2024/04/16 02:43:56;;;;;;;4.77;4.30;;;9.10;99.90;;;;;;5453242;26;20227;-63
2024/04/16 02:46:22;;;;;;;4.53;3.53;;;9.10;99.90;;;;;;5453958;26;20818;-63
2024/04/16 02:48:48;;;;;;;3.10;2.70;;;9.00;99.90;;;;;;5453019;26;20505;-62
2024/04/16 02:51:15;;;;;;;4.63;3.20;;;8.90;99.90;;;;;;5421683;26;20838;-63
2024/04/16 02:53:41;;;;;;;6.47;2.80;;;9.00;99.90;;;;;;5452994;26;20432;-62
2024/04/16 02:56:07;;;;;;;5.10;2.70;;;8.90;99.90;;;;;;5453669;26;20484;-62
2024/04/16 02:58:32;;;;;;;3.10;2.80;;;8.80;99.90;;;;;;5453493;26;20452;-63
2024/04/16 03:01:06;;;;;;;3.20;2.90;;;8.80;99.90;;;;;;5452847;26;20215;-63
2024/04/16 03:03:36;;;;;;;2.80;2.60;;;8.80;99.90;;;;;;5454230;26;20232;-63
2024/04/16 03:06:03;;;;;;;3.60;2.90;;;8.90;99.90;;;;;;5453023;26;20493;-63
2024/04/16 03:08:29;;;;;;;5.70;3.27;;;8.90;99.90;;;;;;5453567;26;20512;-63
2024/04/16 03:10:58;;;;;;;3.37;3.07;;;9.00;99.90;;;;;;5452829;26;20437;-62
2024/04/16 03:13:24;;;;;;;4.70;2.77;;;9.00;99.90;;;;;;5453265;26;20428;-63
2024/04/16 03:15:50;;;;;;;4.90;2.83;;;9.00;99.90;;;;;;5419771;26;20526;-62
2024/04/16 03:18:15;;;;;;;5.70;3.10;;;9.10;99.90;;;;;;5421337;26;20280;-63
2024/04/16 03:20:41;;;;;;;3.20;3.00;;;9.00;99.90;;;;;;5452771;26;20223;-62
2024/04/16 03:23:07;;;;;;;3.20;3.00;;;9.00;99.90;;;;;;5453458;26;20264;-62
2024/04/16 03:25:40;;;;;;;3.93;2.77;;;9.10;99.90;;;;;;5453247;26;20218;-63
2024/04/16 03:28:06;;;;;;;4.57;3.17;;;9.10;99.90;;;;;;5453124;26;20291;-63
2024/04/16 03:30:32;;;;;;;3.20;2.97;;;9.20;99.90;;;;;;5453178;26;20438;-63
2024/04/16 03:32:57;;;;;;;3.50;2.90;;;9.20;99.90;;;;;;5452583;26;20551;-63
2024/04/16 03:35:23;;;;;;;4.37;3.50;;;9.20;99.90;;;;;;5421526;26;20222;-63
2024/04/16 03:37:49;;;;;;;3.43;3.23;;;9.20;99.90;;;;;;5452394;26;20293;-62
2024/04/16 03:40:15;;;;;;;3.60;3.40;;;9.00;99.90;;;;;;5453032;26;20244;-63
2024/04/16 03:42:41;;;;;;;4.60;4.20;;;9.00;99.90;;;;;;5453062;26;20330;-63
2024/04/16 03:45:07;;;;;;;4.73;3.40;;;8.90;99.90;;;;;;5420929;26;20456;-63
2024/04/16 03:47:33;;;;;;;5.87;5.27;;;8.90;99.90;;;;;;5452800;26;20449;-63
2024/04/16 03:49:58;;;;;;;3.80;3.63;;;8.80;99.90;;;;;;5451921;26;20547;-62
2024/04/16 03:52:25;;;;;;;2.93;2.77;;;8.70;99.90;;;;;;5453042;26;20260;-63
2024/04/16 03:54:51;;;;;;;4.07;3.33;;;8.70;99.90;;;;;;5452140;26;20222;-63
2024/04/16 03:57:17;;;;;;;3.67;3.37;;;8.70;99.90;;;;;;5452392;26;20454;-67
2024/04/16 04:02:27;;;;;;;6.23;2.50;;;8.80;99.90;;;;;;5452722;26;20219;-64
2024/04/16 04:04:53;;;;;;;4.40;3.93;;;8.90;99.90;;;;;;5451250;26;20449;-63
2024/04/16 04:07:19;;;;;;;3.80;2.43;;;8.90;99.90;;;;;;5452140;26;20497;-64
2024/04/16 04:09:47;;;;;;;2.70;2.50;;;8.80;99.90;;;;;;5451187;26;21094;-64
2024/04/16 04:12:13;;;;;;;5.00;4.60;;;8.90;99.90;;;;;;5452278;26;20230;-64
2024/04/16 04:14:39;;;;;;;3.20;2.90;;;8.80;99.90;;;;;;5452440;26;20484;-64
2024/04/16 04:17:05;;;;;;;2.73;2.53;;;8.70;99.90;;;;;;5450812;26;20231;-64
2024/04/16 04:19:31;;;;;;;4.53;4.13;;;8.70;99.90;;;;;;5423901;26;20521;-64
2024/04/16 04:21:58;;;;;;;4.70;3.43;;;8.70;99.90;;;;;;5414414;26;20446;-64
2024/04/16 04:24:24;;;;;;;3.17;2.63;;;8.80;99.90;;;;;;5416426;26;20501;-64
2024/04/16 04:26:49;;;;;;;4.47;2.90;;;8.80;99.90;;;;;;5421001;26;20988;-64
2024/04/16 04:29:15;;;;;;;5.23;4.90;;;8.80;99.90;;;;;;5423893;26;20494;-64
2024/04/16 04:31:41;;;;;;;4.30;3.90;;;8.80;99.90;;;;;;5423860;26;20316;-64
2024/04/16 04:34:07;;;;;;;4.10;3.70;;;8.90;99.90;;;;;;5423135;26;20277;-63
2024/04/16 04:36:33;;;;;;;3.90;3.50;;;8.80;99.90;;;;;;5392743;26;20227;-64
2024/04/16 04:38:58;;;;;;;4.03;3.63;;;8.80;99.90;;;;;;5422279;26;20239;-62
2024/04/16 04:41:24;;;;;;;3.80;3.43;;;8.90;99.90;;;;;;5423767;26;20486;-62
2024/04/16 04:43:51;;;;;;;4.67;3.60;;;8.80;99.90;;;;;;5422634;26;20247;-61
2024/04/16 04:46:18;;;;;;;5.70;5.20;;;8.70;99.90;;;;;;5422668;26;20346;-62
2024/04/16 04:48:44;;;;;;;4.53;4.10;;;8.80;99.90;;;;;;5423321;26;20445;-62
2024/04/16 04:51:10;;;;;;;6.70;5.10;;;8.60;99.90;;;;;;5422578;26;20501;-61
2024/04/16 04:53:37;;;;;;;6.40;5.90;;;8.70;99.90;;;;;;5423353;26;20526;-62
2024/04/16 04:56:03;;;;;;;5.23;4.83;;;8.80;99.90;;;;;;5422216;26;20563;-61
2024/04/16 04:58:29;;;;;;;5.77;4.73;;;8.80;99.90;;;;;;5422848;26;20507;-63
2024/04/16 05:00:55;;;;;;;3.70;3.47;;;8.80;99.90;;;;;;5421120;26;20453;-62
2024/04/16 05:03:21;;;;;;;5.73;3.50;;;8.90;99.90;;;;;;5422421;26;20291;-62
2024/04/16 05:05:47;;;;;;;7.00;4.20;;;9.00;99.90;;;;;;5422322;26;20445;-62
2024/04/16 05:08:13;;;;;;;4.53;4.23;;;9.00;99.90;;;;;;5423258;26;20227;-62
2024/04/16 05:10:38;;;;;;;4.20;3.90;;;9.10;99.90;;;;;;5391930;26;20262;-62
2024/04/16 05:13:04;;;;;;;4.83;3.43;;;9.10;99.90;;;;;;5422556;26;20452;-62
2024/04/16 05:15:30;;;;;;;4.17;3.83;;;9.10;99.90;;;;;;5422982;26;20221;-62
2024/04/16 05:17:56;;;;;;;6.10;5.80;;;9.10;99.90;;;;;;5422423;26;20224;-61
2024/04/16 05:20:22;;;;;;;3.77;2.80;;;9.20;99.90;;;;;;5422363;26;20973;-62
2024/04/16 05:22:49;;;;;;;3.63;3.20;;;9.20;99.90;;;;;;5422032;26;20516;-62
2024/04/16 05:25:15;;;;;;;4.33;3.50;;;9.20;99.90;;;;;;5423184;26;20240;-62
2024/04/16 05:27:41;;;;;;;4.20;3.90;;;9.20;99.90;;;;;;5422297;26;20449;-62
2024/04/16 05:30:08;;;;;;;3.73;3.53;;;9.10;99.90;;;;;;5421845;26;20437;-62
2024/04/16 05:32:34;;;;;;;6.13;5.53;;;9.10;99.90;;;;;;5422602;26;20240;-62
2024/04/16 05:35:00;;;;;;;5.50;5.10;;;9.10;99.90;;;;;;5421134;26;20529;-62
2024/04/16 05:37:26;;;;;;;4.67;4.17;;;9.10;99.90;;;;;;5419616;26;20501;-62
2024/04/16 05:39:51;;;;;;;4.30;3.87;;;9.10;99.90;;;;;;5417984;26;20232;-62
2024/04/16 05:42:17;;;;;;;3.10;2.83;;;9.10;99.90;;;;;;5418682;26;20223;-62
2024/04/16 05:44:43;;;;;;;3.93;3.53;;;9.10;99.90;;;;;;5418668;26;20266;-62
2024/04/16 05:47:08;;;;;;;6.67;3.40;;;9.20;99.90;;;;;;5418214;26;20272;-62
2024/04/16 05:49:34;;;;;;;3.63;3.33;;;9.20;99.90;;;;;;5417455;26;20236;-62
2024/04/16 05:52:00;;;;;;;5.80;4.70;;;9.30;99.90;;;;;;5416974;26;20241;-61
2024/04/16 05:54:27;;;;;;;3.73;3.50;;;9.30;99.90;;;;;;5418533;26;20492;-63
2024/04/16 05:56:53;;;;;;;3.23;2.87;;;9.30;99.90;;;;;;5417283;26;20246;-63
2024/04/16 05:59:21;;;;;;;4.60;4.30;;;9.30;99.90;;;;;;5417417;26;21053;-63
2024/04/16 06:01:47;;;;;;;4.07;3.80;;;9.30;99.90;;;;;;5410715;26;20438;-63
2024/04/16 06:04:12;;;;;;;3.30;3.00;;;9.30;99.90;;;;;;5415756;26;20493;-62
2024/04/16 06:06:38;;;;;;;3.77;3.33;;;9.30;99.90;;;;;;5418319;26;20237;-62
2024/04/16 06:09:04;;;;;;;4.27;3.93;;;9.30;99.90;;;;;;5417307;26;20708;-61
2024/04/16 06:11:31;;;;;;;7.73;4.97;;;9.30;99.90;;;;;;5417744;26;20724;-61
2024/04/16 06:13:57;;;;;;;5.10;4.70;;;9.20;99.90;;;;;;5385663;26;20725;-61
2024/04/16 06:16:23;;;;;;;4.03;3.20;;;9.20;99.90;;;;;;5418309;26;20487;-61
2024/04/16 06:18:51;;;;;;;4.27;3.87;;;9.20;99.90;;;;;;5434744;26;20453;-61
2024/04/16 06:21:17;;;;;;;6.27;5.80;;;9.20;99.90;;;;;;5453878;26;20266;-61
2024/04/16 06:23:42;;;;;;;5.03;3.97;;;9.20;99.90;;;;;;5454014;26;20776;-61
2024/04/16 06:26:09;;;;;;;6.97;6.43;;;9.20;99.90;;;;;;5452813;26;20234;-62
2024/04/16 06:28:35;;;;;;;5.23;4.83;;;9.20;99.90;;;;;;5453919;26;20227;-61
2024/04/16 06:31:01;;;;;;;5.63;5.00;;;9.20;99.90;;;;;;5452639;26;21057;-61
2024/04/16 06:33:28;;;;;;;5.47;4.97;;;9.20;99.90;;;;;;5421858;26;20458;-61
2024/04/16 06:35:54;;;;;;;4.00;3.70;;;9.20;99.90;;;;;;5453505;26;20220;-61
2024/04/16 06:38:24;;;;;;;6.03;5.73;;;9.20;99.90;;;;;;5453300;26;20839;-64
2024/04/16 06:40:50;;;;;;;6.83;4.97;;;9.20;99.90;;;;;;5452731;26;20552;-63
2024/04/16 06:43:16;;;;;;;6.20;5.60;;;9.20;99.90;;;;;;5433703;26;20538;-63
2024/04/16 06:45:42;;;;;;;4.80;4.40;;;9.20;99.90;;;;;;5453378;26;20440;-63
2024/04/16 06:48:08;;;;;;;4.90;4.50;;;9.20;99.90;;;;;;5452496;26;20239;-63
2024/04/16 06:50:33;;;;;;;5.50;4.57;;;9.20;99.90;;;;;;5453675;26;20212;-63
2024/04/16 06:52:59;;;;;;;5.30;4.60;;;9.20;99.90;;;;;;5453049;26;20219;-63
2024/04/16 06:55:25;;;;;;;6.80;6.40;;;9.20;99.90;;;;;;5452947;26;20286;-63
2024/04/16 06:57:51;;;;;;;4.40;4.10;;;9.20;99.90;;;;;;5453546;26;20963;-63
2024/04/16 07:00:16;;;;;;;5.47;5.00;;;9.30;99.90;;;;;;5452558;26;20231;-62
2024/04/16 07:02:42;;;;;;;5.67;5.27;;;9.30;99.90;;;;;;5452437;26;20350;-62
2024/04/16 07:05:09;;;;;;;6.93;6.43;;;9.20;99.90;;;;;;5451816;26;20271;-62
2024/04/16 07:07:36;;;;;;;5.10;4.70;;;9.20;99.90;;;;;;5452207;26;20255;-61
2024/04/16 07:10:02;;;;;;;4.10;3.80;;;9.20;99.90;;;;;;5452738;26;20442;-61
2024/04/16 07:12:28;;;;;;;4.20;3.90;;;9.10;99.90;;;;;;5453547;26;20495;-61
2024/04/16 07:14:54;;;;;;;4.10;3.83;;;9.00;99.90;;;;;;5452886;26;20499;-61
2024/04/16 07:17:20;;;;;;;4.60;4.30;;;8.90;99.90;;;;;;5453378;26;20682;-61
2024/04/16 07:19:48;;;;;;;6.00;5.50;;;8.90;99.90;;;;;;5422726;26;20503;-61
2024/04/16 07:22:14;;;;;;;5.50;5.00;;;8.90;99.90;;;;;;5416938;26;20820;-61
2024/04/16 07:24:40;;;;;;;4.47;4.17;;;8.90;99.90;;;;;;5416439;26;20497;-61
2024/04/16 07:27:05;;;;;;;5.57;3.77;;;8.80;99.90;;;;;;5416480;26;20328;-61
2024/04/16 07:29:31;;;;;;;4.80;4.40;;;8.70;99.90;;;;;;5417443;26;20696;-61
2024/04/16 07:31:57;;;;;;;5.00;4.60;;;8.80;99.90;;;;;;5416636;26;20219;-61
2024/04/16 07:34:23;;;;;;;6.20;5.27;;;8.70;99.90;;;;;;5416768;26;20229;-61
2024/04/16 07:36:48;;;;;;;5.40;5.13;;;8.70;99.90;;;;;;5416817;26;20239;-61
2024/04/16 07:39:14;;;;;;;5.50;5.10;;;8.70;99.90;;;;;;5385188;26;20235;-61
2024/04/16 07:41:40;;;;;;;3.30;2.60;;;8.60;99.90;;;;;;5416374;26;20223;-61
2024/04/16 07:44:06;;;;;;;3.97;3.70;;;8.60;99.90;;;;;;5415448;26;20263;-61
2024/04/16 07:46:34;;;;;;;5.60;5.30;;;8.50;99.90;;;;;;5416333;26;20447;-61
2024/04/16 07:49:00;;;;;;;3.20;3.00;;;8.60;99.90;;;;;;5415263;26;20672;-61
2024/04/16 07:51:26;;;;;;;3.47;3.27;;;8.60;99.90;;;;;;5384842;26;20434;-61
2024/04/16 07:53:51;;;;;;;3.40;3.30;;;8.60;99.90;;;;;;5415958;26;20674;-61
2024/04/16 07:56:17;;;;;;;3.00;2.90;;;8.50;99.90;;;;;;5415523;26;20231;-61
2024/04/16 07:58:43;;;;;;;3.40;3.20;;;8.60;99.90;;;;;;5399753;26;20714;-60
2024/04/16 08:01:08;;;;;;;3.47;3.27;;;8.60;99.90;;;;;;5414172;26;20249;-60
2024/04/16 08:03:34;;;;;;;2.90;2.70;;;8.60;99.90;;;;;;5416984;26;20264;-61
2024/04/16 08:06:00;;;;;;;3.20;3.10;;;8.60;99.90;;;;;;5415780;26;20753;-60
2024/04/16 08:08:25;;;;;;;5.00;4.77;;;8.60;99.90;;;;;;5416737;26;20219;-60
2024/04/16 08:10:51;;;;;;;2.57;2.47;;;8.60;99.90;;;;;;5416673;26;20213;-61
2024/04/16 08:13:17;;;;;;;2.30;2.20;;;8.60;99.90;;;;;;5415926;26;20265;-61
2024/04/16 08:15:46;;;;;;;2.37;2.27;;;8.60;99.90;;;;;;5385323;26;20231;-61
2024/04/16 08:18:13;;;;;;;2.50;2.40;;;8.50;99.90;;;;;;5423159;26;20513;-61
2024/04/16 08:20:39;;;;;;;2.80;2.70;;;8.60;99.90;;;;;;5420608;26;20448;-61
2024/04/16 08:23:04;;;;;;;4.37;4.17;;;8.60;99.90;;;;;;5420128;26;20833;-61
2024/04/16 08:25:30;;;;;;;2.17;2.07;;;8.50;99.90;;;;;;5452255;26;20428;-61
2024/04/16 08:27:56;;;;;;;3.80;2.33;;;8.50;99.90;;;;;;5420572;26;20218;-61
2024/04/16 08:30:22;;;;;;;2.70;2.60;;;8.50;99.90;;;;;;5419836;26;20237;-61
2024/04/16 08:32:47;;;;;;;4.33;4.13;;;8.60;99.90;;;;;;5452223;26;20296;-60
2024/04/16 08:35:25;;;;;;;2.60;2.50;;;8.70;99.90;;;;;;5451499;26;20218;-60
2024/04/16 08:37:51;;;;;;;2.90;2.37;;;8.70;99.90;;;;;;5420670;26;20222;-61
2024/04/16 08:40:16;;;;;;;3.00;2.80;;;8.80;99.90;;;;;;5451196;26;20808;-61
2024/04/16 08:42:43;;;;;;;3.37;3.07;;;8.80;99.90;;;;;;5451231;26;20267;-61
2024/04/16 08:45:11;;;;;;;3.43;3.13;;;8.80;99.90;;;;;;5451504;26;20269;-61
2024/04/16 08:47:38;;;;;;;3.50;3.30;;;8.80;99.90;;;;;;5451729;26;20451;-61
2024/04/16 08:50:04;;;;;;;4.27;3.87;;;8.90;99.90;;;;;;5451191;26;20473;-61
2024/04/16 08:52:32;;;;;;;5.23;4.60;;;8.90;99.90;;;;;;5451657;26;20982;-60
2024/04/16 08:54:58;;;;;;;5.40;5.00;;;9.00;99.90;;;;;;5451661;26;20489;-61
2024/04/16 08:57:27;;;;;;;5.60;5.13;;;9.10;99.90;;;;;;5451055;26;20477;-61
2024/04/16 08:59:53;;;;;;;5.03;4.70;;;9.10;99.90;;;;;;5451313;26;20565;-61
2024/04/16 09:02:19;;;;;;;4.57;4.20;;;9.20;99.90;;;;;;5451032;26;20947;-61
2024/04/16 09:04:47;;;;;;;6.77;5.40;;;9.30;99.90;;;;;;5451719;26;20236;-61
2024/04/16 09:07:14;;;;;;;5.07;4.60;;;9.40;99.90;;;;;;5451107;26;20441;-61
2024/04/16 09:09:40;;;;;;;6.67;4.30;;;9.50;99.90;;;;;;5451377;26;20450;-61
2024/04/16 09:12:06;;;;;;;5.13;4.73;;;9.50;99.90;;;;;;5450706;26;21068;-61
2024/04/16 09:14:32;;;;;;;6.50;5.43;;;9.60;99.90;;;;;;5423327;26;20268;-61
2024/04/16 09:17:00;;;;;;;5.83;5.40;;;9.60;99.90;;;;;;5455293;26;20773;-60
2024/04/16 09:19:27;;;;;;;6.33;5.83;;;9.70;99.90;;;;;;5422528;26;20277;-61
2024/04/16 09:21:59;;;;;;;5.93;5.60;;;9.70;99.90;;;;;;5454996;26;20528;-60
2024/04/16 09:24:24;;;;;;;6.43;5.43;;;9.80;99.90;;;;;;5454534;26;20561;-61
2024/04/16 09:26:50;;;;;;;5.80;5.40;;;9.80;99.90;;;;;;5454845;26;20995;-61
2024/04/16 09:29:26;;;;;;;6.73;6.23;;;9.80;99.90;;;;;;5454284;26;20229;-61
2024/04/16 09:31:59;;;;;;;9.30;5.93;;;9.90;99.90;;;;;;5423333;26;20349;-61
2024/04/16 09:34:25;;;;;;;7.00;6.40;;;9.90;99.90;;;;;;5454277;26;20486;-61
2024/04/16 09:36:50;;;;;;;8.43;7.73;;;10.00;99.90;;;;;;5454922;26;20435;-61
2024/04/16 09:39:21;;;;;;;6.40;5.90;;;10.00;99.90;;;;;;5454293;26;20266;-61
2024/04/16 09:41:52;;;;;;;6.63;6.03;;;10.00;99.90;;;;;;5454988;26;20218;-61
2024/04/16 09:44:18;;;;;;;8.10;7.57;;;10.10;99.90;;;;;;5453210;26;20519;-61
2024/04/16 09:46:44;;;;;;;5.90;5.40;;;10.00;99.90;;;;;;5454183;26;20483;-61
2024/04/16 09:49:16;;;;;;;5.37;4.80;;;10.10;99.90;;;;;;5453722;26;20556;-61
2024/04/16 09:51:43;;;;;;;8.20;7.50;;;10.20;99.90;;;;;;5454687;26;20538;-61
2024/04/16 09:54:11;;;;;;;9.50;6.87;;;10.40;99.90;;;;;;5453570;26;20594;-61
2024/04/16 09:56:43;;;;;;;5.67;5.17;;;10.40;99.90;;;;;;5454896;26;20794;-61
2024/04/16 09:59:10;;;;;;;6.67;4.53;;;10.50;99.90;;;;;;5453910;26;20478;-61
2024/04/16 10:01:38;;;;;;;6.37;5.80;;;10.60;99.90;;;;;;5422953;26;20499;-61
2024/04/16 10:04:05;;;;;;;7.03;6.33;;;10.70;99.90;;;;;;5454168;26;20486;-61
2024/04/16 10:06:30;;;;;;;8.97;8.27;;;10.70;99.90;;;;;;5454444;26;20519;-61
2024/04/16 10:08:56;;;;;;;8.40;7.70;;;10.90;99.90;;;;;;5454546;26;20442;-61
2024/04/16 10:11:23;;;;;;;8.93;7.33;;;11.10;99.90;;;;;;5453583;26;20264;-61
2024/04/16 10:13:52;;;;;;;7.13;6.60;;;11.40;99.90;;;;;;5453849;26;20227;-61
2024/04/16 10:16:18;;;;;;;5.97;5.47;;;11.70;99.90;;;;;;5453507;26;20480;-61
2024/04/16 10:18:54;;;;;;;6.40;5.90;;;11.80;99.90;;;;;;5438913;26;20548;-61
2024/04/16 10:21:27;;;;;;;7.00;5.10;;;12.00;99.90;;;;;;5417741;26;20842;-61
2024/04/16 10:24:06;;;;;;;7.73;7.23;;;11.90;99.90;;;;;;5417794;26;20488;-61
2024/04/16 10:26:35;;;;;;;5.33;4.83;;;11.90;99.90;;;;;;5418601;26;20435;-61
2024/04/16 10:29:01;;;;;;;5.50;5.10;;;11.80;99.90;;;;;;5418475;26;20488;-61
2024/04/16 10:31:33;;;;;;;6.03;5.10;;;11.70;99.90;;;;;;5417728;26;20456;-61
2024/04/16 10:34:02;;;;;;;5.80;5.30;;;11.60;99.90;;;;;;5418553;26;20267;-60
2024/04/16 10:36:28;;;;;;;5.00;4.60;;;11.60;99.90;;;;;;5417868;26;20487;-61
2024/04/16 10:38:57;;;;;;;5.50;5.00;;;11.70;99.90;;;;;;5418451;26;20489;-61
2024/04/16 10:41:30;;;;;;;6.10;5.70;;;11.80;99.90;;;;;;5417540;26;20489;-61
2024/04/16 10:43:56;;;;;;;5.77;5.27;;;11.70;99.90;;;;;;5417795;26;20494;-61
2024/04/16 10:46:23;;;;;;;4.20;3.80;;;11.70;99.90;;;;;;5416781;26;20436;-61
2024/04/16 10:48:49;;;;;;;5.50;5.00;;;11.80;99.90;;;;;;5408277;26;20240;-61
2024/04/16 10:51:15;;;;;;;5.17;4.60;;;11.80;99.90;;;;;;5380486;26;20497;-61
2024/04/16 10:53:42;;;;;;;5.30;4.80;;;11.90;99.90;;;;;;5381786;26;20434;-61
2024/04/16 10:56:09;;;;;;;4.87;4.50;;;11.90;99.90;;;;;;5381243;26;20596;-61
2024/04/16 10:58:34;;;;;;;3.97;3.67;;;11.80;99.90;;;;;;5381973;26;20491;-61
2024/04/16 11:01:01;;;;;;;3.30;3.10;;;11.80;99.90;;;;;;5382205;26;20929;-61
2024/04/16 11:03:27;;;;;;;4.10;3.77;;;11.80;99.90;;;;;;5381547;26;20600;-61
2024/04/16 11:05:56;;;;;;;4.07;3.70;;;11.90;99.90;;;;;;5382797;26;20437;-61
2024/04/16 11:08:22;;;;;;;3.53;3.33;;;11.90;99.90;;;;;;5381460;26;20439;-61
2024/04/16 11:10:49;;;;;;;5.60;5.10;;;11.90;99.90;;;;;;5382167;26;20495;-61
2024/04/16 11:13:18;;;;;;;5.90;4.30;;;11.90;99.90;;;;;;5381531;26;20434;-61
2024/04/16 11:15:44;;;;;;;4.27;3.97;;;11.90;99.90;;;;;;5411690;26;20505;-61
2024/04/16 11:18:10;;;;;;;3.60;3.40;;;12.10;99.90;;;;;;5416684;26;20477;-61
2024/04/16 11:20:38;;;;;;;2.90;2.80;;;12.20;99.90;;;;;;5417784;26;20553;-61
2024/04/16 11:23:04;;;;;;;4.50;4.17;;;12.20;99.90;;;;;;5417401;26;20999;-61
2024/04/16 11:25:31;;;;;;;4.70;3.00;;;12.30;99.90;;;;;;5416776;26;20496;-61
2024/04/16 11:27:57;;;;;;;2.70;2.50;;;12.30;99.90;;;;;;5417304;26;20438;-61
2024/04/16 11:30:23;;;;;;;3.97;3.40;;;12.40;99.90;;;;;;5416600;26;20479;-61
2024/04/16 11:32:49;;;;;;;4.80;3.80;;;12.60;99.90;;;;;;5417307;26;20770;-61
2024/04/16 11:35:15;;;;;;;3.30;3.10;;;12.70;99.90;;;;;;5415067;26;20443;-61
2024/04/16 11:37:44;;;;;;;6.27;5.93;;;12.70;99.90;;;;;;5417389;26;20693;-61
2024/04/16 11:40:11;;;;;;;3.63;3.10;;;12.80;99.90;;;;;;5416703;26;20432;-61
2024/04/16 11:42:37;;;;;;;4.10;3.70;;;12.90;99.90;;;;;;5417111;26;20433;-61
2024/04/16 11:45:04;;;;;;;4.70;4.40;;;12.80;99.90;;;;;;5416962;26;20447;-61
2024/04/16 11:47:30;;;;;;;3.10;3.00;;;12.90;99.90;;;;;;5416360;26;20795;-61
2024/04/16 11:49:57;;;;;;;2.10;2.00;;;12.80;99.90;;;;;;5417704;26;20513;-61
2024/04/16 11:52:23;;;;;;;2.23;2.03;;;12.70;99.90;;;;;;5416295;26;20431;-61
2024/04/16 11:54:49;;;;;;;2.93;2.13;;;12.70;99.90;;;;;;5417074;26;20427;-61
2024/04/16 11:57:17;;;;;;;1.80;1.70;;;12.70;99.90;;;;;;5416342;26;20452;-61
2024/04/16 11:59:43;;;;;;;1.87;1.70;;;12.60;99.90;;;;;;5416925;26;20501;-61
2024/04/16 12:02:10;;;;;;;2.40;2.30;;;12.60;99.90;;;;;;5416825;26;20484;-61
2024/04/16 12:04:36;;;;;;;1.80;1.73;;;12.70;99.90;;;;;;5416393;26;20801;-61
2024/04/16 12:07:02;;;;;;;2.20;2.10;;;12.70;99.90;;;;;;5385257;26;20492;-61
2024/04/16 12:09:27;;;;;;;1.90;1.80;;;12.80;99.90;;;;;;5416065;26;20334;-61
2024/04/16 12:11:54;;;;;;;2.50;2.43;;;12.90;99.90;;;;;;5416129;26;20628;-61
2024/04/16 12:14:20;;;;;;;1.83;1.83;;;13.00;99.90;;;;;;5415627;26;20711;-61
2024/04/16 12:16:47;;;;;;;2.00;1.80;;;13.00;99.90;;;;;;5416796;26;20538;-61
2024/04/16 12:19:14;;;;;;;3.30;3.20;;;13.00;99.90;;;;;;5438364;26;20513;-61
2024/04/16 12:21:40;;;;;;;2.37;2.27;;;13.00;99.90;;;;;;5452912;26;20994;-61
2024/04/16 12:24:06;;;;;;;2.10;2.00;;;13.10;99.90;;;;;;5421139;26;20443;-61
2024/04/16 12:26:33;;;;;;;3.00;2.90;;;13.10;99.90;;;;;;5452177;26;20730;-61
2024/04/16 12:28:59;;;;;;;3.00;2.80;;;13.10;99.90;;;;;;5421104;26;20430;-61
2024/04/16 12:31:25;;;;;;;3.00;2.90;;;13.20;99.90;;;;;;5451660;26;20502;-61
2024/04/16 12:33:51;;;;;;;3.27;3.17;;;13.20;99.90;;;;;;5452351;26;20958;-61
2024/04/16 12:36:17;;;;;;;2.60;2.50;;;13.30;99.90;;;;;;5451697;26;20478;-61
2024/04/16 12:38:44;;;;;;;3.33;2.20;;;13.20;99.90;;;;;;5452258;26;20431;-61
2024/04/16 12:41:10;;;;;;;2.73;2.53;;;13.20;99.90;;;;;;5451975;26;20334;-61
2024/04/16 12:43:36;;;;;;;2.60;2.50;;;13.30;99.90;;;;;;5451308;26;20829;-61
2024/04/16 12:46:02;;;;;;;3.20;2.70;;;13.30;99.90;;;;;;5451833;26;20427;-61
2024/04/16 12:48:30;;;;;;;4.40;3.40;;;13.40;99.90;;;;;;5453956;26;20276;-61
2024/04/16 12:50:56;;;;;;;2.10;2.10;;;13.40;99.90;;;;;;5455580;26;20485;-61
2024/04/16 12:53:21;;;;;;;1.73;1.63;;;13.30;99.90;;;;;;5454826;26;20573;-61